Alexander, Arkansas
Current Conditions -  °F | °C
As of 7:16 AM on Sunday 23 Nov 2014 (Local Time) from KLIT Reporting Station
Light Rain Light Rain  
Wind Chill: 14°   Ceiling: 400
Heat Index: 14°   Visibility: 2mi
Dew Point: 13°   Wind: 10mph
Humidity: 94%   Direction: 150°SSE
Pressure: 29.65"   Gusts: NA
Location:  34.63°N, 92.44°W
Report Text: KLIT 231316Z 15009KT 2SM -RA BR OVC004 14/13 A2965 RMK AO2 SFC VIS 2 1/2 P0002
Loading
Personal Weather Stations






























Interactive Weather Map New forecast layout! Learn more

10-Day Weather Forecast

Advertisements
Track Severe Weather on mobile